createdAt,value
2017-11-30T00:00:40.335Z,100284.64
2017-11-30T00:03:08.684Z,100285.53
2017-11-30T00:05:37.242Z,100291.61
2017-11-30T00:08:06.338Z,100283.62
2017-11-30T00:10:34.689Z,100282.89
2017-11-30T00:13:03.046Z,100285.14
2017-11-30T00:15:31.373Z,100290.80
2017-11-30T00:17:59.712Z,100289.99
2017-11-30T00:20:28.090Z,100283.48
2017-11-30T00:22:56.456Z,100274.34
2017-11-30T00:25:24.830Z,100275.06
2017-11-30T00:27:54.042Z,100277.16
2017-11-30T00:30:22.359Z,100284.20
2017-11-30T00:32:50.697Z,100278.39
2017-11-30T00:35:19.853Z,100282.02
2017-11-30T00:37:48.214Z,100277.45
2017-11-30T00:40:16.561Z,100271.15
2017-11-30T00:43:02.936Z,100268.05
2017-11-30T00:45:32.056Z,100265.12
2017-11-30T00:48:01.132Z,100264.13
2017-11-30T00:50:30.285Z,100260.69
2017-11-30T00:52:58.588Z,100264.73
2017-11-30T00:55:26.890Z,100270.25
2017-11-30T00:57:56.002Z,100253.89
2017-11-30T01:00:25.061Z,100260.19
2017-11-30T01:02:53.397Z,100256.88
2017-11-30T01:05:22.202Z,100253.41
2017-11-30T01:07:50.518Z,100246.70
2017-11-30T01:10:19.637Z,100243.56
2017-11-30T01:12:48.034Z,100241.27
2017-11-30T01:15:16.425Z,100240.02
2017-11-30T01:17:44.754Z,100242.06
2017-11-30T01:20:13.904Z,100240.64
2017-11-30T01:22:42.218Z,100230.44
2017-11-30T01:25:10.530Z,100241.77
2017-11-30T01:27:38.985Z,100239.97
2017-11-30T01:30:08.078Z,100243.72
2017-11-30T01:32:37.193Z,100238.61
2017-11-30T01:35:05.574Z,100244.25
2017-11-30T01:37:33.912Z,100236.64
2017-11-30T01:40:03.044Z,100242.30
2017-11-30T01:42:32.179Z,100236.52
2017-11-30T01:45:00.505Z,100242.78
2017-11-30T01:47:29.590Z,100231.32
2017-11-30T01:49:58.060Z,100236.42
2017-11-30T01:52:26.388Z,100230.53
2017-11-30T01:54:54.712Z,100230.27
2017-11-30T01:57:23.061Z,100226.95
2017-11-30T01:59:51.438Z,100226.91
2017-11-30T02:02:19.774Z,100229.03
2017-11-30T02:04:48.893Z,100230.80
2017-11-30T02:07:17.227Z,100231.48
2017-11-30T02:09:45.533Z,100239.34
2017-11-30T02:12:15.177Z,100225.91
2017-11-30T02:14:43.501Z,100227.15
2017-11-30T02:17:11.834Z,100224.50
2017-11-30T02:19:40.173Z,100223.73
2017-11-30T02:22:09.264Z,100215.66
2017-11-30T02:24:38.377Z,100214.19
2017-11-30T02:27:06.749Z,100209.18
2017-11-30T02:29:35.085Z,100207.30
2017-11-30T02:32:03.406Z,100211.14
2017-11-30T02:34:32.994Z,100213.97
2017-11-30T02:37:01.305Z,100212.84
2017-11-30T02:39:29.618Z,100216.05
2017-11-30T02:41:57.986Z,100209.16
2017-11-30T02:44:26.315Z,100209.97
2017-11-30T02:46:54.646Z,100209.23
2017-11-30T02:49:23.012Z,100210.31
2017-11-30T02:51:51.355Z,100204.94
2017-11-30T02:54:19.685Z,100207.36
2017-11-30T02:56:48.351Z,100207.91
2017-11-30T02:59:16.648Z,100206.20
2017-11-30T03:01:45.005Z,100203.91
2017-11-30T03:04:13.338Z,100200.98
2017-11-30T03:06:41.650Z,100200.04
2017-11-30T03:09:10.743Z,100199.97
2017-11-30T03:11:39.115Z,100198.62
2017-11-30T03:14:08.193Z,100197.75
2017-11-30T03:16:37.278Z,100195.42
2017-11-30T03:19:05.827Z,100198.24
2017-11-30T03:21:34.152Z,100189.27
2017-11-30T03:24:02.478Z,100192.96
2017-11-30T03:26:30.946Z,100190.39
2017-11-30T03:28:59.277Z,100186.21
2017-11-30T03:31:27.579Z,100190.28
2017-11-30T03:33:55.925Z,100189.59
2017-11-30T03:36:24.268Z,100190.16
2017-11-30T03:38:52.649Z,100182.86
2017-11-30T03:41:21.334Z,100189.23
2017-11-30T03:43:49.747Z,100183.94
2017-11-30T03:46:18.088Z,100187.39
2017-11-30T03:48:46.433Z,100194.11
2017-11-30T03:51:14.746Z,100192.09
2017-11-30T03:53:43.061Z,100195.08
2017-11-30T03:56:11.398Z,100185.91
2017-11-30T03:58:39.698Z,100180.80
2017-11-30T04:01:08.015Z,100180.17
2017-11-30T04:03:36.634Z,100192.56
2017-11-30T04:06:05.701Z,100193.67
2017-11-30T04:08:34.053Z,100190.48
2017-11-30T04:11:02.406Z,100191.27
2017-11-30T04:13:30.772Z,100193.53
2017-11-30T04:15:59.078Z,100194.16
2017-11-30T04:18:27.427Z,100188.94
2017-11-30T04:20:55.770Z,100184.20
2017-11-30T04:23:24.897Z,100189.16
2017-11-30T04:25:53.509Z,100189.16
2017-11-30T04:28:21.834Z,100185.16
2017-11-30T04:30:50.961Z,100183.19
2017-11-30T04:33:19.333Z,100184.53
2017-11-30T04:35:47.681Z,100186.15
2017-11-30T04:38:16.016Z,100178.98
2017-11-30T04:40:44.366Z,100180.70
2017-11-30T04:43:12.740Z,100170.97
2017-11-30T04:45:41.877Z,100168.23
2017-11-30T04:48:10.458Z,100173.68
2017-11-30T04:50:38.802Z,100172.22
2017-11-30T04:53:07.903Z,100173.19
2017-11-30T04:55:36.245Z,100176.95
2017-11-30T04:58:04.683Z,100184.92
2017-11-30T05:00:33.030Z,100178.05
2017-11-30T05:03:01.374Z,100178.36
2017-11-30T05:05:30.462Z,100178.30
2017-11-30T05:07:58.819Z,100185.31
2017-11-30T05:10:27.299Z,100185.22
2017-11-30T05:12:55.592Z,100181.75
2017-11-30T05:15:23.953Z,100177.34
2017-11-30T05:17:52.533Z,100176.58
2017-11-30T05:20:20.872Z,100181.41
2017-11-30T05:22:49.186Z,100179.64
2017-11-30T05:25:17.628Z,100182.02
2017-11-30T05:27:45.955Z,100185.00
2017-11-30T05:30:14.281Z,100189.03
2017-11-30T05:32:43.338Z,100184.45
2017-11-30T05:35:11.659Z,100185.87
2017-11-30T05:37:40.269Z,100189.62
2017-11-30T05:40:09.403Z,100188.02
2017-11-30T05:42:38.486Z,100192.86
2017-11-30T05:45:06.885Z,100190.27
2017-11-30T05:47:35.233Z,100185.12
2017-11-30T05:50:03.550Z,100186.48
2017-11-30T05:52:31.906Z,100179.41
2017-11-30T05:55:00.429Z,100178.78
2017-11-30T05:57:28.805Z,100172.56
2017-11-30T05:59:57.134Z,100178.52
2017-11-30T06:02:25.501Z,100180.25
2017-11-30T06:04:53.830Z,100184.31
2017-11-30T06:07:22.146Z,100173.53
2017-11-30T06:09:51.282Z,100173.31
2017-11-30T06:12:19.695Z,100170.17
2017-11-30T06:14:48.031Z,100167.46
2017-11-30T06:17:16.554Z,100166.78
2017-11-30T06:19:44.920Z,100172.34
2017-11-30T06:22:13.271Z,100174.52
2017-11-30T06:24:41.646Z,100178.73
2017-11-30T06:27:09.963Z,100175.34
2017-11-30T06:29:38.299Z,100171.72
2017-11-30T06:32:06.647Z,100178.83
2017-11-30T06:34:35.750Z,100176.02
2017-11-30T06:37:04.097Z,100182.50
2017-11-30T06:39:32.777Z,100179.13
2017-11-30T06:42:01.118Z,100174.47
2017-11-30T06:44:29.429Z,100177.70
2017-11-30T06:46:57.771Z,100176.18
2017-11-30T06:49:26.086Z,100178.34
2017-11-30T06:51:54.451Z,100180.17
2017-11-30T06:54:22.826Z,100182.22
2017-11-30T06:56:51.180Z,100188.06
2017-11-30T06:59:19.510Z,100182.59
2017-11-30T07:01:48.155Z,100179.67
2017-11-30T07:04:16.502Z,100185.53
2017-11-30T07:06:44.848Z,100185.20
2017-11-30T07:09:13.182Z,100186.75
2017-11-30T07:11:41.559Z,100186.46
2017-11-30T07:14:09.874Z,100182.13
2017-11-30T07:16:38.218Z,100182.22
2017-11-30T07:19:06.552Z,100177.23
2017-11-30T07:21:34.870Z,100182.09
2017-11-30T07:24:03.698Z,100179.93
2017-11-30T07:26:32.007Z,100175.23
2017-11-30T07:29:00.356Z,100185.77
2017-11-30T07:31:28.683Z,100188.02
2017-11-30T07:33:57.771Z,100186.61
2017-11-30T07:36:26.109Z,100186.95
2017-11-30T07:38:54.524Z,100183.50
2017-11-30T07:41:23.612Z,100183.50
2017-11-30T07:43:51.965Z,100184.42
2017-11-30T07:46:20.703Z,100181.02
2017-11-30T07:48:49.069Z,100186.81
2017-11-30T07:51:18.201Z,100191.47
2017-11-30T07:53:46.548Z,100189.85
2017-11-30T07:56:15.695Z,100188.78
2017-11-30T07:58:44.050Z,100178.14
2017-11-30T08:01:12.437Z,100186.81
2017-11-30T08:03:40.784Z,100193.36
2017-11-30T08:06:09.881Z,100183.83
2017-11-30T08:08:39.338Z,100185.58
2017-11-30T08:11:07.681Z,100189.14
2017-11-30T08:13:36.010Z,100184.86
2017-11-30T08:16:04.369Z,100187.31
2017-11-30T08:18:32.710Z,100192.02
2017-11-30T08:21:01.026Z,100188.50
2017-11-30T08:23:29.380Z,100194.99
2017-11-30T08:25:57.710Z,100188.09
2017-11-30T08:28:26.065Z,100195.52
2017-11-30T08:30:54.780Z,100197.95
2017-11-30T08:33:23.911Z,100192.50
2017-11-30T08:35:52.290Z,100194.83
2017-11-30T08:38:20.671Z,100196.98
2017-11-30T08:40:49.010Z,100195.52
2017-11-30T08:43:17.324Z,100194.25
2017-11-30T08:45:45.692Z,100202.30
2017-11-30T08:48:14.006Z,100202.31
2017-11-30T08:50:42.314Z,100209.27
2017-11-30T08:53:11.072Z,100196.91
2017-11-30T08:55:39.413Z,100202.34
2017-11-30T08:58:08.561Z,100201.22
2017-11-30T09:00:37.667Z,100209.13
2017-11-30T09:03:06.017Z,100199.95
2017-11-30T09:05:34.369Z,100207.22
2017-11-30T09:08:03.492Z,100202.34
2017-11-30T09:10:31.805Z,100208.34
2017-11-30T09:13:00.186Z,100204.81
2017-11-30T09:15:28.916Z,100201.22
2017-11-30T09:17:57.221Z,100205.66
2017-11-30T09:20:25.549Z,100196.41
2017-11-30T09:22:54.674Z,100203.67
2017-11-30T09:25:23.006Z,100207.76
2017-11-30T09:27:51.308Z,100211.22
2017-11-30T09:30:20.407Z,100206.89
2017-11-30T09:32:48.734Z,100209.25
2017-11-30T09:35:17.087Z,100202.55
2017-11-30T09:37:45.507Z,100205.31
2017-11-30T09:40:13.809Z,100195.98
2017-11-30T09:42:42.927Z,100197.89
2017-11-30T09:45:12.054Z,100197.38
2017-11-30T09:47:40.406Z,100195.62
2017-11-30T09:50:08.750Z,100185.91
2017-11-30T09:52:37.881Z,100191.06
2017-11-30T09:55:06.215Z,100186.95
2017-11-30T09:57:34.523Z,100184.09
2017-11-30T10:00:03.118Z,100184.99
2017-11-30T10:02:32.203Z,100186.78
2017-11-30T10:05:01.309Z,100177.38
2017-11-30T10:07:29.678Z,100185.08
2017-11-30T10:09:58.006Z,100188.16
2017-11-30T10:12:26.337Z,100178.61
2017-11-30T10:14:55.478Z,100179.47
2017-11-30T10:17:23.893Z,100177.84
2017-11-30T10:19:53.025Z,100174.78
2017-11-30T10:22:21.804Z,100175.14
2017-11-30T10:24:50.145Z,100175.20
2017-11-30T10:27:18.492Z,100169.17
2017-11-30T10:29:46.873Z,100172.45
2017-11-30T10:32:15.205Z,100175.77
2017-11-30T10:34:44.316Z,100177.91
2017-11-30T10:37:12.684Z,100177.34
2017-11-30T10:39:40.992Z,100180.61
2017-11-30T10:42:09.308Z,100178.38
2017-11-30T10:44:37.713Z,100170.92
2017-11-30T10:47:06.090Z,100176.02
2017-11-30T10:49:34.411Z,100169.44
2017-11-30T10:52:02.773Z,100172.33
2017-11-30T10:54:31.099Z,100176.19
2017-11-30T10:56:59.445Z,100179.81
2017-11-30T10:59:27.783Z,100175.34
2017-11-30T11:01:56.109Z,100172.43
2017-11-30T11:04:24.591Z,100174.55
2017-11-30T11:06:53.095Z,100174.30
2017-11-30T11:09:21.392Z,100168.88
2017-11-30T11:11:49.726Z,100166.73
2017-11-30T11:14:18.095Z,100163.30
2017-11-30T11:16:46.433Z,100161.89
2017-11-30T11:19:14.776Z,100169.34
2017-11-30T11:21:43.158Z,100170.11
2017-11-30T11:24:11.509Z,100162.52
2017-11-30T11:26:39.822Z,100161.98
2017-11-30T11:29:08.482Z,100162.55
2017-11-30T11:31:36.813Z,100161.69
2017-11-30T11:34:05.161Z,100164.15
2017-11-30T11:36:33.532Z,100166.89
2017-11-30T11:39:01.865Z,100163.14
2017-11-30T11:41:30.988Z,100165.84
2017-11-30T11:44:00.102Z,100159.59
2017-11-30T11:46:28.470Z,100167.01
2017-11-30T11:48:56.829Z,100164.42
2017-11-30T11:51:25.552Z,100165.31
2017-11-30T11:53:53.872Z,100158.09
2017-11-30T11:56:22.963Z,100168.59
2017-11-30T11:58:51.363Z,100163.18
2017-11-30T12:01:19.895Z,100167.14
2017-11-30T12:03:48.227Z,100169.75
2017-11-30T12:06:17.361Z,100170.62
2017-11-30T12:08:45.703Z,100172.73
2017-11-30T12:11:14.801Z,100159.91
2017-11-30T12:13:43.488Z,100167.27
2017-11-30T12:16:11.913Z,100164.30
2017-11-30T12:18:40.252Z,100166.94
2017-11-30T12:21:09.377Z,100163.95
2017-11-30T12:23:37.714Z,100166.55
2017-11-30T12:26:06.821Z,100165.97
2017-11-30T12:28:35.953Z,100165.94
2017-11-30T12:31:04.293Z,100168.47
2017-11-30T12:33:33.420Z,100169.66
2017-11-30T12:36:01.941Z,100172.94
2017-11-30T12:38:31.031Z,100173.50
2017-11-30T12:41:00.162Z,100168.67
2017-11-30T12:43:29.306Z,100163.88
2017-11-30T12:45:57.621Z,100171.53
2017-11-30T12:48:26.735Z,100169.17
2017-11-30T12:50:55.898Z,100177.58
2017-11-30T12:53:24.275Z,100180.78
2017-11-30T12:55:52.620Z,100181.59
2017-11-30T12:58:21.031Z,100184.51
2017-11-30T13:00:49.378Z,100182.88
2017-11-30T13:03:17.718Z,100188.20
2017-11-30T13:05:46.865Z,100185.27
2017-11-30T13:08:15.179Z,100177.99
2017-11-30T13:10:43.505Z,100177.92
2017-11-30T13:13:11.861Z,100181.38
2017-11-30T13:15:40.980Z,100186.75
2017-11-30T13:18:09.303Z,100187.99
2017-11-30T13:20:37.743Z,100190.77
2017-11-30T13:23:06.136Z,100194.53
2017-11-30T13:25:34.476Z,100186.97
2017-11-30T13:28:02.829Z,100183.14
2017-11-30T13:30:31.162Z,100181.31
2017-11-30T13:32:59.479Z,100187.77
2017-11-30T13:35:27.822Z,100183.82
2017-11-30T13:37:56.164Z,100191.40
2017-11-30T13:40:26.315Z,100191.06
2017-11-30T13:42:54.748Z,100187.11
2017-11-30T13:45:23.177Z,100189.78
2017-11-30T13:47:51.502Z,100193.69
2017-11-30T13:50:19.931Z,100193.86
2017-11-30T13:52:48.326Z,100196.36
2017-11-30T13:55:16.703Z,100198.16
2017-11-30T13:57:45.079Z,100194.48
2017-11-30T14:00:13.394Z,100200.03
2017-11-30T14:02:41.687Z,100197.84
2017-11-30T14:05:10.893Z,100201.36
2017-11-30T14:07:39.987Z,100199.61
2017-11-30T14:10:08.335Z,100198.88
2017-11-30T14:12:36.664Z,100211.48
2017-11-30T14:15:04.996Z,100204.88
2017-11-30T14:17:33.335Z,100215.44
2017-11-30T14:20:01.663Z,100212.25
2017-11-30T14:22:29.985Z,100215.08
2017-11-30T14:24:58.301Z,100222.12
2017-11-30T14:27:27.581Z,100215.47
2017-11-30T14:29:55.910Z,100221.07
2017-11-30T14:32:24.997Z,100220.03
2017-11-30T14:34:53.344Z,100224.08
2017-11-30T14:37:21.688Z,100222.41
2017-11-30T14:39:50.051Z,100227.37
2017-11-30T14:42:18.413Z,100222.09
2017-11-30T14:44:47.505Z,100223.13
2017-11-30T14:47:16.052Z,100233.09
2017-11-30T14:49:45.028Z,100229.73
2017-11-30T14:52:13.348Z,100239.31
2017-11-30T14:54:41.673Z,100232.91
2017-11-30T14:57:10.104Z,100236.34
2017-11-30T14:59:38.431Z,100238.48
2017-11-30T15:02:06.890Z,100243.13
2017-11-30T15:04:35.982Z,100233.70
2017-11-30T15:07:05.056Z,100240.06
2017-11-30T15:09:33.408Z,100245.42
2017-11-30T15:12:01.956Z,100235.03
2017-11-30T15:14:30.295Z,100245.09
2017-11-30T15:16:58.667Z,100246.43
2017-11-30T15:19:27.025Z,100243.10
2017-11-30T15:21:55.346Z,100249.73
2017-11-30T15:24:23.661Z,100252.72
2017-11-30T15:26:52.939Z,100259.03
2017-11-30T15:29:22.045Z,100263.08
2017-11-30T15:31:50.370Z,100256.49
2017-11-30T15:34:18.810Z,100259.54
2017-11-30T15:36:47.134Z,100259.41
2017-11-30T15:39:15.475Z,100268.98
2017-11-30T15:41:43.796Z,100269.70
2017-11-30T15:44:12.124Z,100270.76
2017-11-30T15:46:40.466Z,100265.60
2017-11-30T15:49:08.789Z,100275.38
2017-11-30T15:51:37.134Z,100270.70
2017-11-30T15:54:05.571Z,100276.99
2017-11-30T15:56:33.950Z,100276.91
2017-11-30T15:59:02.362Z,100277.05
2017-11-30T16:01:31.491Z,100278.73
2017-11-30T16:03:59.866Z,100283.34
2017-11-30T16:06:28.199Z,100284.55
2017-11-30T16:08:56.520Z,100282.27
2017-11-30T16:11:24.946Z,100288.08
2017-11-30T16:13:53.242Z,100287.56
2017-11-30T16:16:21.606Z,100284.09
2017-11-30T16:18:50.072Z,100294.19
2017-11-30T16:21:18.524Z,100289.66
2017-11-30T16:23:46.832Z,100294.24
2017-11-30T16:26:15.175Z,100290.24
2017-11-30T16:28:43.485Z,100290.80
2017-11-30T16:31:11.851Z,100296.23
2017-11-30T16:33:40.212Z,100295.64
2017-11-30T16:36:09.299Z,100300.58
2017-11-30T16:38:37.620Z,100308.41
2017-11-30T16:41:06.025Z,100301.50
2017-11-30T16:43:34.349Z,100302.34
2017-11-30T16:46:02.667Z,100303.83
2017-11-30T16:48:31.070Z,100301.05
2017-11-30T16:50:59.424Z,100299.58
2017-11-30T16:53:27.709Z,100302.42
2017-11-30T16:55:56.061Z,100306.50
2017-11-30T16:58:24.440Z,100308.56
2017-11-30T17:00:52.747Z,100307.73
2017-11-30T17:03:21.950Z,100310.09
2017-11-30T17:05:50.324Z,100314.91
2017-11-30T17:08:18.668Z,100319.65
2017-11-30T17:10:47.059Z,100312.50
2017-11-30T17:13:15.395Z,100323.28
2017-11-30T17:15:44.488Z,100314.20
2017-11-30T17:18:12.938Z,100314.01
2017-11-30T17:20:41.277Z,100316.70
2017-11-30T17:23:09.573Z,100323.59
2017-11-30T17:25:38.547Z,100318.44
2017-11-30T17:28:06.888Z,100330.00
2017-11-30T17:30:35.339Z,100332.42
2017-11-30T17:33:03.799Z,100334.32
2017-11-30T17:35:32.145Z,100339.76
2017-11-30T17:38:01.258Z,100339.60
2017-11-30T17:40:29.634Z,100339.92
2017-11-30T17:42:57.954Z,100342.42
2017-11-30T17:45:26.281Z,100347.38
2017-11-30T17:47:54.928Z,100348.70
2017-11-30T17:50:24.032Z,100353.49
2017-11-30T17:52:52.348Z,100348.72
2017-11-30T17:55:20.730Z,100354.44
2017-11-30T17:57:49.047Z,100359.78
2017-11-30T18:00:17.493Z,100359.33
2017-11-30T18:02:46.174Z,100366.98
2017-11-30T18:05:14.508Z,100366.78
2017-11-30T18:07:42.873Z,100369.96
2017-11-30T18:10:11.614Z,100366.78
2017-11-30T18:12:40.025Z,100376.06
2017-11-30T18:15:08.389Z,100378.19
2017-11-30T18:17:36.751Z,100376.77
2017-11-30T18:20:05.848Z,100374.02
2017-11-30T18:22:34.203Z,100387.59
2017-11-30T18:25:02.680Z,100383.48
2017-11-30T18:27:31.758Z,100381.13
2017-11-30T18:30:00.070Z,100390.27
2017-11-30T18:32:29.520Z,100394.86
2017-11-30T18:34:57.873Z,100400.81
2017-11-30T18:37:26.201Z,100400.31
2017-11-30T18:39:54.861Z,100397.83
2017-11-30T18:42:23.191Z,100405.73
2017-11-30T18:44:52.449Z,100414.02
2017-11-30T18:47:21.288Z,100415.66
2017-11-30T18:49:49.632Z,100413.39
2017-11-30T18:52:18.010Z,100414.95
2017-11-30T18:54:46.420Z,100419.25
2017-11-30T18:57:15.527Z,100424.21
2017-11-30T18:59:44.789Z,100422.02
2017-11-30T19:02:14.125Z,100426.11
2017-11-30T19:04:43.228Z,100429.57
2017-11-30T19:07:12.308Z,100432.27
2017-11-30T19:09:40.700Z,100439.95
2017-11-30T19:12:09.823Z,100438.48
2017-11-30T19:14:38.160Z,100445.11
2017-11-30T19:17:06.709Z,100445.33
2017-11-30T19:19:35.041Z,100442.07
2017-11-30T19:22:03.407Z,100433.89
2017-11-30T19:24:32.530Z,100438.20
2017-11-30T19:27:00.841Z,100435.38
2017-11-30T19:29:29.197Z,100437.26
2017-11-30T19:31:57.545Z,100443.34
2017-11-30T19:34:26.629Z,100444.00
2017-11-30T19:36:55.727Z,100443.36
2017-11-30T19:39:24.920Z,100446.97
2017-11-30T19:41:54.848Z,100452.42
2017-11-30T19:44:23.167Z,100456.87
2017-11-30T19:46:51.556Z,100455.35
2017-11-30T19:49:19.905Z,100457.16
2017-11-30T19:51:49.118Z,100454.27
2017-11-30T19:54:18.184Z,100452.70
2017-11-30T19:56:47.292Z,100453.20
2017-11-30T19:59:16.416Z,100465.36
2017-11-30T20:01:45.156Z,100463.87
2017-11-30T20:04:13.476Z,100476.88
2017-11-30T20:06:41.828Z,100481.13
2017-11-30T20:09:10.247Z,100481.77
2017-11-30T20:11:38.578Z,100481.27
2017-11-30T20:14:07.666Z,100481.70
2017-11-30T20:16:36.873Z,100491.53
2017-11-30T20:19:05.185Z,100493.94
2017-11-30T20:21:33.537Z,100497.41
2017-11-30T20:24:02.111Z,100498.67
2017-11-30T20:26:30.460Z,100501.29
2017-11-30T20:28:58.822Z,100500.30
2017-11-30T20:31:27.152Z,100503.11
2017-11-30T20:33:55.497Z,100499.72
2017-11-30T20:36:23.838Z,100509.41
2017-11-30T20:38:52.185Z,100509.72
2017-11-30T20:41:20.589Z,100515.48
2017-11-30T20:43:48.973Z,100521.88
2017-11-30T20:46:17.393Z,100524.92
2017-11-30T20:48:45.736Z,100519.16
2017-11-30T20:51:14.077Z,100528.83
2017-11-30T20:53:43.193Z,100527.05
2017-11-30T20:56:11.580Z,100532.33
2017-11-30T20:58:39.939Z,100532.70
2017-11-30T21:01:08.373Z,100536.38
2017-11-30T21:03:36.724Z,100543.60
2017-11-30T21:06:05.071Z,100536.45
2017-11-30T21:08:33.768Z,100543.73
2017-11-30T21:11:02.124Z,100545.58
2017-11-30T21:13:31.194Z,100553.30
2017-11-30T21:15:59.558Z,100551.22
2017-11-30T21:18:27.884Z,100546.57
2017-11-30T21:20:56.224Z,100560.59
2017-11-30T21:23:24.590Z,100562.20
2017-11-30T21:25:52.945Z,100558.65
2017-11-30T21:28:21.332Z,100564.81
2017-11-30T21:30:50.130Z,100567.62
2017-11-30T21:33:18.487Z,100569.64
2017-11-30T21:35:46.903Z,100573.89
2017-11-30T21:38:15.282Z,100570.78
2017-11-30T21:40:43.657Z,100573.33
2017-11-30T21:43:11.995Z,100583.52
2017-11-30T21:45:41.099Z,100586.84
2017-11-30T21:48:09.430Z,100582.73
2017-11-30T21:50:37.779Z,100576.08
2017-11-30T21:53:06.806Z,100581.25
2017-11-30T21:55:35.154Z,100582.03
2017-11-30T21:58:03.501Z,100588.03
2017-11-30T22:00:31.947Z,100592.55
2017-11-30T22:03:01.164Z,100596.14
2017-11-30T22:05:29.550Z,100600.07
2017-11-30T22:07:57.989Z,100604.45
2017-11-30T22:10:26.362Z,100604.45
2017-11-30T22:12:54.710Z,100606.45
2017-11-30T22:15:23.150Z,100599.72
2017-11-30T22:17:51.512Z,100597.17
2017-11-30T22:20:19.830Z,100600.08
2017-11-30T22:22:48.940Z,100596.73
2017-11-30T22:25:17.309Z,100610.39
2017-11-30T22:27:45.658Z,100610.47
2017-11-30T22:30:14.158Z,100618.06
2017-11-30T22:32:43.273Z,100619.76
2017-11-30T22:35:11.616Z,100622.16
2017-11-30T22:37:40.015Z,100618.98
2017-11-30T22:40:09.102Z,100621.45
2017-11-30T22:42:38.323Z,100621.67
2017-11-30T22:45:06.686Z,100618.48
2017-11-30T22:47:35.844Z,100620.67
2017-11-30T22:50:04.141Z,100618.33
2017-11-30T22:52:32.496Z,100619.61
2017-11-30T22:55:00.847Z,100622.31
2017-11-30T22:57:29.256Z,100628.19
2017-11-30T22:59:57.790Z,100633.42
2017-11-30T23:02:26.914Z,100637.23
2017-11-30T23:04:55.240Z,100645.44
2017-11-30T23:07:23.598Z,100645.66
2017-11-30T23:09:51.953Z,100644.83
2017-11-30T23:12:20.361Z,100641.98
2017-11-30T23:14:48.733Z,100649.70
2017-11-30T23:17:17.067Z,100649.56
2017-11-30T23:19:45.403Z,100649.48
2017-11-30T23:22:14.140Z,100653.81
2017-11-30T23:24:42.473Z,100658.91
2017-11-30T23:27:10.851Z,100657.70
2017-11-30T23:29:39.174Z,100664.77
2017-11-30T23:32:08.249Z,100662.66
2017-11-30T23:34:37.332Z,100664.49
2017-11-30T23:37:05.702Z,100672.98
2017-11-30T23:39:34.025Z,100681.11
2017-11-30T23:42:02.385Z,100683.31
2017-11-30T23:44:30.921Z,100685.07
2017-11-30T23:46:59.264Z,100684.81
2017-11-30T23:49:27.592Z,100682.89
2017-11-30T23:51:56.741Z,100691.26
2017-11-30T23:54:25.844Z,100697.34
2017-11-30T23:56:54.192Z,100694.31
2017-11-30T23:59:22.558Z,100698.98
